Time;durP1;ratioP1;P1;durP2;ratioP2;P2;SDS_P1;SDS_P2;PMS_P1;PMS_P2;Temp;Humidity;BMP_temperature;BMP_pressure;BME280_temperature;BME280_humidity;BME280_pressure;Samples;Min_cycle;Max_cycle;Signal;HPM_P1;HPM_P2
2022/06/04 00:02:57;;;;;;;4.75;2.75;;;;;;;19.88;63.07;100214.09;6280971;28;20040;-74
2022/06/04 00:05:58;;;;;;;5.77;2.60;;;;;;;19.87;64.54;100201.84;6297232;28;20529;-74
2022/06/04 00:08:59;;;;;;;4.15;2.40;;;;;;;19.89;65.75;100212.25;6297095;28;20124;-74
2022/06/04 00:15:40;;;;;;;6.07;2.53;;;;;;;19.81;66.22;100191.00;6272561;28;20464;-74
2022/06/04 00:18:42;;;;;;;6.75;2.50;;;;;;;19.80;66.90;100192.81;6258073;28;20048;-74
2022/06/04 00:21:45;;;;;;;5.88;2.80;;;;;;;19.76;66.93;100199.41;6272073;28;20049;-74
2022/06/04 00:24:46;;;;;;;5.20;2.53;;;;;;;19.74;67.15;100190.78;6255993;28;20048;-74
2022/06/04 00:27:46;;;;;;;2.50;2.30;;;;;;;19.71;65.91;100191.09;6271973;28;20044;-74
2022/06/04 00:30:48;;;;;;;4.37;2.60;;;;;;;19.74;65.32;100190.78;6238522;28;20052;-74
2022/06/04 00:33:51;;;;;;;3.55;2.80;;;;;;;19.72;65.57;100190.09;6271182;28;20408;-74
2022/06/04 00:36:52;;;;;;;5.15;2.45;;;;;;;19.71;66.28;100194.56;6254964;28;20349;-74
2022/06/04 00:40:25;;;;;;;8.75;2.42;;;;;;;19.69;66.10;100190.38;6231744;28;20057;-74
2022/06/04 00:43:26;;;;;;;5.00;3.10;;;;;;;19.63;66.96;100183.84;6245004;28;20054;-74
2022/06/04 00:47:01;;;;;;;4.50;2.53;;;;;;;19.58;68.64;100188.78;6245266;28;20108;-74
2022/06/04 00:50:05;;;;;;;4.10;2.63;;;;;;;19.50;67.39;100176.28;6245463;28;20128;-74
2022/06/04 00:53:09;;;;;;;3.83;2.38;;;;;;;19.45;68.42;100177.69;6245140;28;20049;-74
2022/06/04 00:56:59;;;;;;;4.57;2.63;;;;;;;19.42;68.95;100170.06;6245353;28;20057;-74
2022/06/04 01:00:06;;;;;;;5.15;2.47;;;;;;;19.42;69.43;100162.94;6213000;28;20520;-74
2022/06/04 01:03:27;;;;;;;4.38;2.65;;;;;;;19.43;70.37;100164.59;6244904;28;20076;-74
2022/06/04 01:07:01;;;;;;;7.00;2.50;;;;;;;19.41;70.33;100157.81;6245155;28;20069;-74
2022/06/04 01:10:28;;;;;;;9.93;2.80;;;;;;;19.37;70.96;100159.09;6224130;28;20378;-74
2022/06/04 01:13:57;;;;;;;6.28;3.08;;;;;;;19.34;71.90;100157.56;6225558;28;20064;-74
2022/06/04 01:17:06;;;;;;;3.63;2.72;;;;;;;19.35;71.13;100148.63;6242718;28;20052;-74
2022/06/04 01:20:35;;;;;;;5.40;2.78;;;;;;;19.36;71.37;100149.50;6274717;28;20087;-74
2022/06/04 01:23:42;;;;;;;3.70;2.90;;;;;;;19.33;71.13;100153.25;6274586;28;20217;-74
2022/06/04 01:27:08;;;;;;;4.43;3.20;;;;;;;19.31;72.35;100139.34;6258095;28;20142;-74
2022/06/04 01:30:25;;;;;;;5.35;2.75;;;;;;;19.30;73.34;100145.63;6274712;28;20053;-74
2022/06/04 01:33:46;;;;;;;3.83;3.08;;;;;;;19.28;73.54;100137.00;6257988;28;20099;-73
2022/06/04 01:36:55;;;;;;;3.42;2.72;;;;;;;19.28;75.00;100134.34;6257740;28;20515;-74
2022/06/04 01:43:33;;;;;;;4.97;3.50;;;;;;;19.28;74.80;100129.06;6265900;28;20056;-74
2022/06/04 01:46:48;;;;;;;5.90;3.10;;;;;;;19.30;75.14;100127.94;6277015;28;20068;-74
2022/06/04 01:49:54;;;;;;;4.22;3.28;;;;;;;19.29;74.84;100131.56;6275850;28;20048;-74
2022/06/04 01:53:00;;;;;;;4.03;3.33;;;;;;;19.20;75.87;100134.25;6275423;28;20045;-74
2022/06/04 01:56:06;;;;;;;4.82;3.00;;;;;;;19.19;74.46;100129.94;6275384;28;20048;-74
2022/06/04 01:59:23;;;;;;;5.95;3.15;;;;;;;19.18;76.08;100130.94;6276165;28;20041;-74
2022/06/04 02:02:56;;;;;;;6.47;3.08;;;;;;;19.20;75.97;100128.97;6276402;28;20480;-74
2022/06/04 02:06:03;;;;;;;5.18;3.15;;;;;;;19.18;74.89;100126.47;6276674;28;20048;-74
2022/06/04 02:09:13;;;;;;;4.78;3.10;;;;;;;19.16;76.84;100122.31;6275184;28;20437;-74
2022/06/04 02:12:15;;;;;;;5.18;3.70;;;;;;;19.13;77.57;100121.63;6276224;28;20079;-74
2022/06/04 02:15:20;;;;;;;4.13;3.28;;;;;;;19.12;78.79;100113.81;6275227;28;20134;-74
2022/06/04 02:18:21;;;;;;;4.60;3.15;;;;;;;19.16;77.62;100119.66;6276203;28;20076;-75
2022/06/04 02:21:23;;;;;;;5.17;3.47;;;;;;;19.17;79.69;100118.66;6274399;28;20365;-74
2022/06/04 02:24:27;;;;;;;9.07;3.83;;;;;;;19.21;78.20;100123.53;6276028;28;20041;-74
2022/06/04 02:27:28;;;;;;;5.35;3.42;;;;;;;19.19;78.99;100124.66;6276044;28;20488;-74
2022/06/04 02:30:55;;;;;;;5.18;3.30;;;;;;;19.21;79.97;100122.69;6308277;28;20489;-74
2022/06/04 02:34:14;;;;;;;8.13;3.58;;;;;;;19.20;80.95;100119.22;6273560;28;20397;-74
2022/06/04 02:37:26;;;;;;;4.90;3.45;;;;;;;19.21;81.79;100120.03;6274419;28;20071;-74
2022/06/04 02:40:43;;;;;;;4.05;3.60;;;;;;;19.23;82.41;100118.94;6275736;28;20045;-74
2022/06/04 02:43:51;;;;;;;4.78;3.55;;;;;;;19.27;80.18;100117.66;6275376;28;20061;-73
2022/06/04 02:47:13;;;;;;;6.15;3.78;;;;;;;19.29;80.50;100117.50;6275612;28;20075;-74
2022/06/04 02:50:27;;;;;;;3.78;3.38;;;;;;;19.32;79.09;100123.31;6273392;28;20079;-74
2022/06/04 02:53:31;;;;;;;8.85;3.80;;;;;;;19.33;80.17;100117.06;6275169;28;20043;-74
2022/06/04 02:56:38;;;;;;;6.78;3.88;;;;;;;19.26;80.13;100123.91;6274078;28;20048;-74
2022/06/04 02:59:40;;;;;;;6.03;3.83;;;;;;;19.26;79.24;100121.28;6274159;28;20411;-74
2022/06/04 03:02:41;;;;;;;11.52;3.88;;;;;;;19.27;80.43;100128.25;6274928;28;20445;-74
2022/06/04 03:05:53;;;;;;;5.77;4.20;;;;;;;19.29;79.70;100128.91;6260714;28;20044;-74
2022/06/04 03:08:55;;;;;;;10.40;3.83;;;;;;;19.31;79.65;100126.09;6280804;28;20052;-75
2022/06/04 03:11:55;;;;;;;9.10;3.97;;;;;;;19.33;80.29;100126.78;6256637;28;20468;-74
2022/06/04 03:14:56;;;;;;;13.53;3.70;;;;;;;19.41;79.55;100139.28;6272976;28;20041;-74
2022/06/04 03:17:57;;;;;;;8.90;4.00;;;;;;;19.49;80.15;100142.84;6272605;28;20064;-74
2022/06/04 03:20:58;;;;;;;6.53;4.37;;;;;;;19.56;80.23;100142.25;6297649;28;20045;-74
2022/06/04 03:24:01;;;;;;;7.07;4.40;;;;;;;19.67;80.36;100152.63;6264236;28;20040;-74
2022/06/04 03:27:02;;;;;;;6.30;4.05;;;;;;;19.73;80.43;100160.84;6281213;28;20040;-74
2022/06/04 03:30:04;;;;;;;5.73;4.17;;;;;;;19.88;80.76;100157.66;6264283;28;20120;-74
2022/06/04 03:33:05;;;;;;;7.55;3.90;;;;;;;20.01;79.63;100163.41;6297365;28;20071;-73
2022/06/04 03:36:09;;;;;;;6.25;3.65;;;;;;;20.01;79.75;100155.44;6283287;28;20076;-74
2022/06/04 03:39:11;;;;;;;6.63;4.00;;;;;;;20.03;80.12;100150.84;6272289;28;20041;-73
2022/06/04 03:42:13;;;;;;;8.40;3.90;;;;;;;20.01;80.26;100141.38;6272382;28;20075;-74
2022/06/04 03:45:15;;;;;;;5.20;4.13;;;;;;;20.00;81.31;100143.22;6272111;28;20056;-74
2022/06/04 03:48:16;;;;;;;3.72;3.38;;;;;;;20.01;82.02;100150.16;6272109;28;20053;-74
2022/06/04 03:51:17;;;;;;;5.70;4.07;;;;;;;19.98;82.98;100152.28;6255697;28;20487;-74
2022/06/04 03:54:52;;;;;;;10.70;4.28;;;;;;;19.92;85.17;100159.84;6273189;28;20103;-74
2022/06/04 03:57:42;;;;;;;6.95;4.72;;;;;;;19.79;91.88;100164.69;6272962;28;20045;-74
2022/06/04 04:00:45;;;;;;;9.18;4.30;;;;;;;19.65;94.63;100163.38;6283491;28;20040;-74
2022/06/04 04:03:45;;;;;;;5.57;4.35;;;;;;;19.51;99.23;100163.88;6280260;28;20513;-74
2022/06/04 04:06:46;;;;;;;8.47;4.87;;;;;;;19.35;100.00;100166.34;6263515;28;20045;-74
2022/06/04 04:09:47;;;;;;;15.95;5.57;;;;;;;19.27;100.00;100156.47;6279775;28;20082;-75
2022/06/04 04:12:49;;;;;;;10.13;5.20;;;;;;;19.28;100.00;100164.28;6296652;28;20048;-80
2022/06/04 04:15:51;;;;;;;10.73;5.25;;;;;;;19.17;100.00;100166.28;6297554;28;20064;-78
2022/06/04 04:18:54;;;;;;;12.73;5.10;;;;;;;19.10;100.00;100169.50;6279789;28;20057;-76
2022/06/04 04:21:55;;;;;;;9.73;5.47;;;;;;;19.04;100.00;100174.53;6279983;28;20049;-82
2022/06/04 04:24:56;;;;;;;14.37;5.57;;;;;;;19.03;100.00;100180.84;6263022;28;20476;-77
2022/06/04 04:27:57;;;;;;;7.83;5.73;;;;;;;19.02;100.00;100187.91;6296208;28;20044;-76
2022/06/04 04:30:59;;;;;;;8.45;5.90;;;;;;;19.03;100.00;100204.63;6296072;28;20123;-82
2022/06/04 04:34:05;;;;;;;7.77;5.70;;;;;;;19.06;100.00;100213.09;6279465;28;20036;-77
2022/06/04 04:37:06;;;;;;;9.00;5.75;;;;;;;19.09;100.00;100211.97;6312495;28;20676;-77
2022/06/04 04:40:10;;;;;;;12.03;6.20;;;;;;;19.02;100.00;100208.22;6295860;28;20062;-77
2022/06/04 04:43:12;;;;;;;9.75;6.00;;;;;;;18.99;100.00;100205.91;6279489;28;20045;-77
2022/06/04 04:46:13;;;;;;;11.00;6.40;;;;;;;19.02;100.00;100200.31;6279391;28;20047;-82
2022/06/04 04:49:14;;;;;;;;;;;;;;;19.13;100.00;100208.06;6297606;28;20509;-82
2022/06/04 04:52:15;;;;;;;11.20;6.15;;;;;;;19.18;100.00;100203.16;6295850;28;19955;-82
2022/06/04 04:55:16;;;;;;;9.13;5.90;;;;;;;19.23;100.00;100203.56;6295904;28;20047;-82
2022/06/04 04:58:17;;;;;;;9.70;6.70;;;;;;;19.20;100.00;100195.09;6254551;28;20045;-82
2022/06/04 05:01:25;;;;;;;10.87;6.20;;;;;;;19.25;100.00;100196.31;6287497;28;20045;-82
2022/06/04 05:04:26;;;;;;;5.93;5.25;;;;;;;19.15;100.00;100195.53;6270668;28;20292;-77
2022/06/04 05:07:27;;;;;;;10.07;6.33;;;;;;;19.17;100.00;100196.22;6270573;28;20048;-81
2022/06/04 05:10:31;;;;;;;8.45;5.82;;;;;;;19.25;100.00;100193.69;6304237;28;20055;-81
2022/06/04 05:13:32;;;;;;;8.25;5.53;;;;;;;19.39;100.00;100196.81;6254051;28;20052;-82
2022/06/04 05:16:36;;;;;;;9.13;5.87;;;;;;;19.38;100.00;100200.44;6270674;28;20041;-82
2022/06/04 05:19:36;;;;;;;8.95;5.38;;;;;;;19.45;100.00;100191.75;6304079;28;20501;-77
2022/06/04 05:22:37;;;;;;;9.77;6.17;;;;;;;19.55;100.00;100191.69;6271692;28;20041;-77
2022/06/04 05:25:38;;;;;;;9.83;5.67;;;;;;;19.47;100.00;100194.25;6253862;28;20051;-77
2022/06/04 05:28:39;;;;;;;7.13;5.53;;;;;;;19.40;100.00;100199.31;6270496;28;20048;-81
2022/06/04 05:31:40;;;;;;;9.13;5.50;;;;;;;19.30;100.00;100199.34;6271655;28;20049;-77
2022/06/04 05:34:41;;;;;;;8.38;5.82;;;;;;;19.18;100.00;100197.88;6270273;28;20063;-76
2022/06/04 05:37:42;;;;;;;7.53;5.50;;;;;;;19.23;100.00;100194.78;6270319;28;20041;-81
2022/06/04 05:40:43;;;;;;;10.17;5.77;;;;;;;19.26;100.00;100186.56;6270225;28;20045;-76
2022/06/04 05:43:44;;;;;;;8.07;5.93;;;;;;;19.42;100.00;100186.78;6286715;28;20073;-76
2022/06/04 05:46:47;;;;;;;9.90;6.63;;;;;;;19.58;100.00;100183.47;6286768;28;20492;-81
2022/06/04 05:49:48;;;;;;;11.10;6.28;;;;;;;19.75;100.00;100175.72;6253605;28;20045;-80
2022/06/04 05:52:49;;;;;;;15.17;6.93;;;;;;;19.77;100.00;100177.25;6270072;28;20468;-81
2022/06/04 05:55:50;;;;;;;9.20;6.80;;;;;;;19.73;100.00;100165.31;6271963;28;20116;-81
2022/06/04 05:58:54;;;;;;;7.28;6.30;;;;;;;19.71;100.00;100149.56;6275978;28;20055;-81
2022/06/04 06:01:55;;;;;;;10.13;7.03;;;;;;;19.63;100.00;100143.31;6275890;28;20041;-77
2022/06/04 06:04:56;;;;;;;9.33;6.63;;;;;;;19.67;100.00;100147.34;6274407;28;20139;-77
2022/06/04 06:07:57;;;;;;;10.27;7.50;;;;;;;19.77;100.00;100153.44;6274415;28;20053;-77
2022/06/04 06:10:58;;;;;;;9.63;6.95;;;;;;;19.76;100.00;100150.94;6274337;28;20052;-77
2022/06/04 06:14:00;;;;;;;9.90;7.37;;;;;;;19.72;100.00;100147.75;6291096;28;20057;-76
2022/06/04 06:17:01;;;;;;;13.07;7.47;;;;;;;19.76;100.00;100156.22;6273968;28;20049;-76
2022/06/04 06:20:06;;;;;;;10.87;6.63;;;;;;;19.42;100.00;100162.94;6275359;28;20041;-76
2022/06/04 06:23:09;;;;;;;9.57;7.07;;;;;;;19.40;100.00;100164.91;6275209;28;20479;-76
2022/06/04 06:26:16;;;;;;;12.88;8.23;;;;;;;19.12;100.00;100164.91;6275181;28;20102;-79
2022/06/04 06:29:18;;;;;;;13.30;8.23;;;;;;;19.15;100.00;100169.09;6275256;28;20108;-76
2022/06/04 06:32:20;;;;;;;10.95;8.23;;;;;;;19.18;100.00;100165.31;6290619;28;20040;-81
2022/06/04 06:35:25;;;;;;;12.35;7.85;;;;;;;19.09;100.00;100170.50;6290380;28;20045;-81
2022/06/04 06:38:27;;;;;;;11.60;9.15;;;;;;;19.38;100.00;100192.50;6275034;28;20124;-76
2022/06/04 06:41:28;;;;;;;;;;;;;;;19.37;100.00;100182.88;6275267;28;20455;-77
2022/06/04 06:44:29;;;;;;;12.27;7.68;;;;;;;19.19;100.00;100177.53;6285838;28;19928;-79
2022/06/04 06:47:33;;;;;;;12.50;7.90;;;;;;;19.24;100.00;100172.66;6281097;28;20127;-78
2022/06/04 06:50:34;;;;;;;10.07;7.90;;;;;;;19.31;100.00;100153.41;6273675;28;20041;-79
2022/06/04 06:53:35;;;;;;;11.43;8.18;;;;;;;19.24;100.00;100149.69;6273809;28;20041;-77
2022/06/04 06:56:39;;;;;;;12.37;8.03;;;;;;;19.29;100.00;100141.28;6273294;28;20111;-79
2022/06/04 06:59:47;;;;;;;14.25;7.88;;;;;;;19.63;100.00;100151.28;6289878;28;20049;-79
2022/06/04 07:02:48;;;;;;;9.15;6.88;;;;;;;19.55;100.00;100152.00;6273193;28;20045;-79
2022/06/04 07:05:53;;;;;;;12.47;6.93;;;;;;;19.58;100.00;100138.50;6240172;28;20056;-79
2022/06/04 07:08:54;;;;;;;9.38;6.40;;;;;;;19.66;100.00;100130.63;6279862;28;20045;-78
2022/06/04 07:11:56;;;;;;;8.07;6.72;;;;;;;19.79;100.00;100134.72;6292627;28;20045;-79
2022/06/04 07:14:56;;;;;;;12.23;6.43;;;;;;;19.76;100.00;100141.16;6285362;28;20051;-80
2022/06/04 07:17:57;;;;;;;10.33;6.80;;;;;;;19.79;100.00;100135.59;6256365;28;20041;-79
2022/06/04 07:20:59;;;;;;;7.43;6.18;;;;;;;19.85;100.00;100139.41;6280184;28;20044;-78
2022/06/04 07:24:00;;;;;;;10.13;6.18;;;;;;;19.77;100.00;100142.84;6244744;28;20123;-78
2022/06/04 07:27:01;;;;;;;8.07;6.43;;;;;;;19.81;100.00;100135.41;6264718;28;20090;-78
2022/06/04 07:30:03;;;;;;;8.50;6.40;;;;;;;19.77;100.00;100134.03;6280955;28;20090;-79
2022/06/04 07:33:04;;;;;;;7.10;6.40;;;;;;;19.69;100.00;100135.63;6297887;28;20040;-79
2022/06/04 07:36:06;;;;;;;7.95;6.70;;;;;;;19.79;100.00;100148.81;6280956;28;20044;-79
2022/06/04 07:39:09;;;;;;;11.35;7.15;;;;;;;19.78;100.00;100148.97;6297356;28;20045;-78
2022/06/04 07:42:09;;;;;;;9.15;7.03;;;;;;;19.76;100.00;100149.09;6297298;28;20037;-79
2022/06/04 07:45:10;;;;;;;9.87;6.60;;;;;;;19.76;100.00;100135.88;6280456;28;20494;-78
2022/06/04 07:48:12;;;;;;;8.93;6.43;;;;;;;19.79;100.00;100137.38;6297275;28;20118;-80
2022/06/04 07:51:14;;;;;;;10.98;6.43;;;;;;;19.66;100.00;100127.13;6275553;28;20503;-79
2022/06/04 07:54:16;;;;;;;11.15;6.30;;;;;;;19.75;100.00;100142.16;6295021;28;20410;-79
2022/06/04 07:57:19;;;;;;;9.02;6.18;;;;;;;19.70;100.00;100147.03;6292957;28;20048;-77
2022/06/04 08:00:21;;;;;;;9.55;6.75;;;;;;;19.85;100.00;100123.53;6272364;28;20063;-78
2022/06/04 08:03:26;;;;;;;9.30;6.90;;;;;;;19.77;100.00;100120.81;6257629;22;20072;-77
2022/06/04 08:06:29;;;;;;;11.05;8.38;;;;;;;19.77;100.00;100120.81;6246544;28;20090;-79
2022/06/04 08:09:31;;;;;;;9.70;7.88;;;;;;;19.80;100.00;100120.53;6230453;28;20049;-76
2022/06/04 08:12:35;;;;;;;;;;;;;;;19.74;100.00;100119.31;6246451;28;20061;-79
2022/06/04 08:15:58;;;;;;;10.52;7.10;;;;;;;19.66;100.00;100119.19;6269836;28;19924;-77
2022/06/04 08:18:59;;;;;;;8.63;7.55;;;;;;;19.64;100.00;100123.81;6269309;28;20174;-80
2022/06/04 08:22:04;;;;;;;9.47;7.90;;;;;;;19.67;100.00;100126.16;6253942;28;20060;-79
2022/06/04 08:25:05;;;;;;;9.82;7.95;;;;;;;19.70;100.00;100112.63;6237954;28;20155;-76
2022/06/04 08:28:07;;;;;;;9.70;8.10;;;;;;;19.57;100.00;100118.28;6237202;28;20565;-77
2022/06/04 08:31:11;;;;;;;11.63;8.68;;;;;;;19.70;100.00;100131.13;6253028;28;20067;-80
2022/06/04 08:34:13;;;;;;;11.20;8.90;;;;;;;19.59;100.00;100140.13;6236688;28;20491;-80
2022/06/04 08:37:15;;;;;;;;;;;;;;;19.52;100.00;100136.44;6269650;28;20057;-80
2022/06/04 08:40:35;;;;;;;10.00;8.50;;;;;;;19.52;100.00;100157.63;6252990;28;19921;-76
2022/06/04 08:43:38;;;;;;;12.95;8.93;;;;;;;19.54;100.00;100158.28;6252691;28;20049;-76
2022/06/04 08:46:47;;;;;;;12.70;9.57;;;;;;;19.48;100.00;100151.78;6256461;28;20489;-80
2022/06/04 08:49:55;;;;;;;11.27;9.05;;;;;;;19.61;100.00;100142.66;6247394;28;20064;-80
2022/06/04 08:53:00;;;;;;;11.20;9.23;;;;;;;19.78;100.00;100152.44;6246301;28;20099;-80
2022/06/04 09:00:03;;;;;;;13.93;10.40;;;;;;;19.60;100.00;100156.84;6247398;28;20056;-80
2022/06/04 09:03:19;;;;;;;12.88;9.50;;;;;;;19.58;100.00;100177.34;6245748;28;20060;-80
2022/06/04 09:06:47;;;;;;;10.75;9.05;;;;;;;19.50;100.00;100186.03;6247082;28;20053;-77
2022/06/04 09:10:30;;;;;;;11.88;8.40;;;;;;;19.60;100.00;100201.84;6246024;28;20041;-77
2022/06/04 09:13:36;;;;;;;;;;;;;;;19.62;100.00;100194.59;6204151;28;20054;-78
2022/06/04 09:17:04;;;;;;;16.80;9.93;;;;;;;19.56;100.00;100174.84;6232583;28;19921;-78
2022/06/04 09:20:37;;;;;;;12.07;9.15;;;;;;;19.67;100.00;100179.09;6241132;28;20042;-79
2022/06/04 09:23:47;;;;;;;11.63;9.02;;;;;;;19.71;100.00;100177.84;6246366;28;20056;-79
2022/06/04 09:27:28;;;;;;;14.77;9.30;;;;;;;19.84;100.00;100173.00;6246835;28;20041;-79
2022/06/04 09:30:36;;;;;;;12.75;9.38;;;;;;;19.95;100.00;100171.13;6245264;28;20135;-77
2022/06/04 09:33:48;;;;;;;14.00;9.65;;;;;;;20.05;100.00;100154.16;6249247;28;20049;-78
2022/06/04 09:36:50;;;;;;;13.77;9.00;;;;;;;20.07;100.00;100148.72;6250468;28;20535;-77
2022/06/04 09:40:05;;;;;;;15.32;9.50;;;;;;;19.83;100.00;100151.97;6251470;28;20072;-77
2022/06/04 09:43:15;;;;;;;13.07;9.32;;;;;;;19.80;100.00;100153.13;6251557;28;20091;-79
2022/06/04 09:46:16;;;;;;;10.88;9.43;;;;;;;19.81;100.00;100143.34;6233712;28;20416;-79
2022/06/04 09:49:24;;;;;;;13.17;9.57;;;;;;;19.83;100.00;100149.31;6233805;28;20045;-79
2022/06/04 09:52:38;;;;;;;12.95;9.70;;;;;;;19.70;100.00;100137.28;6250167;28;20106;-79
2022/06/04 09:56:11;;;;;;;15.93;9.77;;;;;;;19.79;100.00;100138.22;6249869;28;20049;-79
2022/06/04 09:59:30;;;;;;;12.77;10.23;;;;;;;19.76;100.00;100132.41;6249804;28;20050;-78
2022/06/04 10:02:32;;;;;;;11.00;9.88;;;;;;;19.71;100.00;100143.44;6249846;28;20053;-76
2022/06/04 10:05:35;;;;;;;13.30;10.77;;;;;;;19.68;100.00;100149.00;6233782;28;20037;-79
2022/06/04 10:12:21;;;;;;;14.00;10.40;;;;;;;19.43;100.00;100138.16;6251001;28;20504;-79
2022/06/04 10:15:47;;;;;;;13.43;10.20;;;;;;;19.42;100.00;100106.56;6249718;28;20048;-80
2022/06/04 10:18:59;;;;;;;14.40;10.70;;;;;;;19.17;100.00;100103.66;6246911;28;20493;-79
2022/06/04 10:22:12;;;;;;;13.80;10.53;;;;;;;19.31;100.00;100092.56;6249678;28;20061;-78
2022/06/04 10:25:38;;;;;;;16.05;10.55;;;;;;;19.35;100.00;100086.97;6249336;28;20045;-76
2022/06/04 10:29:04;;;;;;;12.48;9.93;;;;;;;19.46;100.00;100077.00;6250655;28;20049;-79
2022/06/04 10:32:36;;;;;;;15.57;10.48;;;;;;;19.61;100.00;100084.41;6250481;28;20034;-79
2022/06/04 10:36:01;;;;;;;13.80;11.20;;;;;;;19.89;100.00;100075.44;6249466;28;20496;-79
2022/06/04 10:39:31;;;;;;;15.10;10.25;;;;;;;20.03;100.00;100068.72;6232610;28;20488;-80
2022/06/04 10:42:52;;;;;;;14.50;9.55;;;;;;;20.11;100.00;100075.91;6248946;28;20475;-75
2022/06/04 10:45:59;;;;;;;15.07;10.15;;;;;;;20.27;100.00;100046.06;6250129;28;20057;-75
2022/06/04 10:49:29;;;;;;;10.65;9.00;;;;;;;20.08;100.00;100060.34;6248543;28;20203;-74
2022/06/04 10:53:14;;;;;;;17.38;9.93;;;;;;;19.79;100.00;100058.81;6249967;28;20133;-80
2022/06/04 10:56:21;;;;;;;14.90;9.68;;;;;;;19.72;100.00;100057.75;6250162;28;20038;-75
2022/06/04 10:59:31;;;;;;;10.93;9.00;;;;;;;19.86;100.00;100051.91;6247406;28;20046;-74
2022/06/04 11:02:56;;;;;;;14.23;9.18;;;;;;;20.05;100.00;100063.28;6249450;28;20444;-75
2022/06/04 11:06:05;;;;;;;13.52;9.88;;;;;;;20.13;100.00;100055.41;6249711;28;20069;-79
2022/06/04 11:09:15;;;;;;;12.30;9.60;;;;;;;20.25;100.00;100053.34;6231768;28;20045;-75
2022/06/04 11:12:29;;;;;;;11.68;10.10;;;;;;;20.42;100.00;100046.31;6249548;28;20103;-75
2022/06/04 11:16:13;;;;;;;14.73;9.77;;;;;;;20.69;100.00;100046.16;6231543;28;20057;-75
2022/06/04 11:19:23;;;;;;;10.88;9.27;;;;;;;20.96;100.00;100051.38;6237728;28;20136;-75
2022/06/04 11:22:37;;;;;;;12.68;8.98;;;;;;;20.94;100.00;100048.91;6249247;28;20072;-80
2022/06/04 11:25:42;;;;;;;16.35;8.40;;;;;;;20.87;100.00;100047.88;6249190;28;20041;-80
2022/06/04 11:28:44;;;;;;;13.48;8.38;;;;;;;21.37;100.00;100032.88;6231330;28;20397;-80
2022/06/04 11:32:03;;;;;;;13.63;8.90;;;;;;;21.63;100.00;100054.03;6249102;28;20042;-75
2022/06/04 11:35:14;;;;;;;12.63;8.70;;;;;;;22.01;100.00;100044.56;6249281;28;20068;-75
2022/06/04 11:38:58;;;;;;;9.57;7.95;;;;;;;22.25;100.00;100041.03;6247704;28;20045;-75
2022/06/04 11:41:59;;;;;;;9.77;7.80;;;;;;;22.47;100.00;100039.47;6248896;28;20447;-79
2022/06/04 11:45:12;;;;;;;11.90;7.45;;;;;;;22.66;100.00;100045.41;6247452;28;20046;-79
2022/06/04 11:48:45;;;;;;;9.93;7.45;;;;;;;22.76;100.00;100037.22;6248873;28;20548;-79
2022/06/04 11:52:17;;;;;;;11.85;8.27;;;;;;;23.79;100.00;100033.44;6247470;28;20052;-75
2022/06/04 11:55:31;;;;;;;8.27;6.45;;;;;;;23.47;100.00;100041.50;6247562;28;20045;-74
2022/06/04 11:59:07;;;;;;;10.05;6.93;;;;;;;23.45;100.00;100035.53;6248304;28;20091;-77
2022/06/04 12:02:50;;;;;;;11.00;7.00;;;;;;;23.01;100.00;100021.97;6232719;28;20058;-74
2022/06/04 12:06:00;;;;;;;11.65;6.63;;;;;;;22.94;100.00;100017.34;6246831;28;20065;-75
2022/06/04 12:09:39;;;;;;;10.85;6.97;;;;;;;22.89;100.00;100016.19;6248126;28;20047;-77
2022/06/04 12:12:58;;;;;;;8.85;7.15;;;;;;;23.08;100.00;100014.94;6247113;28;20057;-75
2022/06/04 12:16:11;;;;;;;10.15;7.35;;;;;;;23.29;100.00;100009.84;6248173;28;20599;-76
2022/06/04 12:26:26;;;;;;;9.32;7.57;;;;;;;23.72;100.00;100003.97;6247988;28;20045;-74
2022/06/04 12:29:27;;;;;;;9.82;7.20;;;;;;;23.64;100.00;100004.06;6246501;28;20052;-73
2022/06/04 12:32:36;;;;;;;9.93;7.57;;;;;;;23.66;100.00;100000.22;6244962;28;20044;-75
2022/06/04 12:35:40;;;;;;;8.45;7.00;;;;;;;23.88;100.00;99989.72;6239655;28;20397;-74
2022/06/04 12:38:47;;;;;;;11.57;7.65;;;;;;;24.23;100.00;99992.69;6228832;28;20053;-74
2022/06/04 12:41:51;;;;;;;9.30;6.72;;;;;;;24.18;100.00;99984.44;6244091;28;20042;-74
2022/06/04 12:44:56;;;;;;;8.52;7.47;;;;;;;24.37;100.00;99989.19;6228376;28;20166;-74
2022/06/04 12:47:57;;;;;;;12.60;7.47;;;;;;;24.55;100.00;99983.50;6245448;28;20455;-74
2022/06/04 12:51:06;;;;;;;11.43;8.10;;;;;;;24.56;100.00;99987.00;6247402;28;20096;-74
2022/06/04 12:54:44;;;;;;;11.27;6.85;;;;;;;24.62;100.00;99988.91;6247227;28;20042;-75
2022/06/04 12:57:52;;;;;;;10.25;7.28;;;;;;;24.70;100.00;99981.63;6245746;28;20449;-74
2022/06/04 13:00:58;;;;;;;10.48;6.93;;;;;;;24.77;100.00;99979.06;6247128;28;20069;-75
2022/06/04 13:04:11;;;;;;;11.45;6.80;;;;;;;24.98;100.00;99978.25;6247025;28;20060;-75
2022/06/04 13:07:27;;;;;;;9.35;6.30;;;;;;;24.84;100.00;99971.94;6245851;28;20077;-75
2022/06/04 13:10:40;;;;;;;13.48;7.03;;;;;;;25.09;100.00;99967.06;6245810;28;20484;-75
2022/06/04 13:13:59;;;;;;;10.90;6.90;;;;;;;25.34;100.00;99966.72;6247059;28;20045;-74
2022/06/04 13:17:17;;;;;;;11.32;7.00;;;;;;;25.24;100.00;99975.03;6246825;28;20596;-74
2022/06/04 13:20:33;;;;;;;9.23;6.60;;;;;;;24.99;100.00;99965.72;6244791;28;20107;-73
2022/06/04 13:23:42;;;;;;;8.38;7.13;;;;;;;24.87;100.00;99966.25;6244974;28;20067;-76
2022/06/04 13:26:56;;;;;;;16.20;7.20;;;;;;;24.91;100.00;99964.84;6247724;28;20049;-74
2022/06/04 13:29:58;;;;;;;9.38;6.82;;;;;;;25.05;100.00;99959.63;6246713;28;20129;-74
2022/06/04 13:33:08;;;;;;;8.93;6.43;;;;;;;24.93;100.00;99956.63;6246711;28;20053;-74
2022/06/04 13:36:11;;;;;;;10.02;6.65;;;;;;;24.84;100.00;99958.59;6246694;28;20493;-74
2022/06/04 13:39:16;;;;;;;8.93;6.68;;;;;;;24.81;100.00;99951.00;6246560;28;20041;-74
2022/06/04 13:42:25;;;;;;;10.43;7.10;;;;;;;24.47;100.00;99957.72;6246639;28;20508;-74
2022/06/04 13:45:32;;;;;;;8.88;6.55;;;;;;;24.40;100.00;99946.16;6246566;28;20046;-74
2022/06/04 13:48:34;;;;;;;9.93;6.63;;;;;;;24.25;100.00;99956.81;6228834;28;20116;-75
2022/06/04 13:51:44;;;;;;;8.63;6.15;;;;;;;24.10;100.00;99958.69;6245404;28;20060;-75
2022/06/04 13:54:53;;;;;;;7.50;6.57;;;;;;;24.06;100.00;99958.22;6246560;28;20039;-76
2022/06/04 13:57:57;;;;;;;7.90;7.00;;;;;;;23.99;100.00;99951.97;6245241;28;20046;-75
2022/06/04 14:01:12;;;;;;;10.13;6.95;;;;;;;23.90;100.00;99945.88;6246421;28;20073;-75
2022/06/04 14:07:40;;;;;;;8.38;7.45;;;;;;;23.80;100.00;99956.00;6247443;28;20042;-73
2022/06/04 14:10:56;;;;;;;10.50;7.35;;;;;;;23.76;100.00;99952.00;6246003;28;20100;-75
2022/06/04 14:14:22;;;;;;;8.27;7.22;;;;;;;23.61;100.00;99954.66;6229405;28;20080;-75
2022/06/04 14:17:37;;;;;;;10.52;7.28;;;;;;;23.60;100.00;99960.19;6248539;28;20125;-75
2022/06/04 14:20:54;;;;;;;11.25;7.35;;;;;;;23.62;100.00;99966.16;6250024;28;20472;-76
2022/06/04 14:24:33;;;;;;;8.68;7.00;;;;;;;23.51;100.00;99957.59;6249492;28;20041;-74
2022/06/04 14:27:59;;;;;;;13.05;7.40;;;;;;;23.53;100.00;99960.03;6249265;28;20448;-74
2022/06/04 14:31:30;;;;;;;13.20;7.65;;;;;;;23.35;100.00;99960.38;6251068;28;20056;-76
2022/06/04 14:34:37;;;;;;;12.10;8.13;;;;;;;23.20;100.00;99955.00;6249380;28;20067;-75
2022/06/04 14:37:42;;;;;;;11.98;7.82;;;;;;;23.01;100.00;99956.28;6249346;28;20049;-74
2022/06/04 14:41:04;;;;;;;11.13;7.53;;;;;;;22.86;100.00;99958.03;6250670;28;20052;-74
2022/06/04 14:44:23;;;;;;;13.30;8.32;;;;;;;22.66;100.00;99965.63;6251003;28;20045;-75
2022/06/04 14:47:24;;;;;;;12.00;7.80;;;;;;;22.69;100.00;99963.47;6250946;28;20488;-73
2022/06/04 14:50:42;;;;;;;12.23;8.07;;;;;;;22.80;100.00;99962.22;6250514;28;20076;-76
2022/06/04 14:53:44;;;;;;;13.70;8.05;;;;;;;23.06;100.00;99955.75;6249930;28;20384;-73
2022/06/04 14:56:57;;;;;;;9.25;7.45;;;;;;;23.25;100.00;99962.47;6249306;28;20046;-75